createdAt,value
2023-02-23T00:01:14.440Z,38.77
2023-02-23T00:03:44.010Z,39.17
2023-02-23T00:06:11.802Z,37.87
2023-02-23T00:08:39.541Z,38.73
2023-02-23T00:11:07.998Z,39.30
2023-02-23T00:13:37.620Z,38.13
2023-02-23T00:16:06.730Z,40.23
2023-02-23T00:18:45.030Z,40.27
2023-02-23T00:21:16.411Z,39.73
2023-02-23T00:23:45.314Z,38.70
2023-02-23T00:26:13.962Z,39.20
2023-02-23T00:28:43.441Z,38.60
2023-02-23T00:31:11.761Z,38.47
2023-02-23T00:33:39.664Z,38.40
2023-02-23T00:36:09.231Z,40.17
2023-02-23T00:38:39.856Z,37.03
2023-02-23T00:41:08.615Z,39.03
2023-02-23T00:43:37.257Z,40.60
2023-02-23T00:46:06.789Z,40.53
2023-02-23T00:48:34.647Z,39.43
2023-02-23T00:51:02.859Z,38.63
2023-02-23T00:53:30.556Z,40.37
2023-02-23T00:55:59.755Z,40.53
2023-02-23T00:58:27.596Z,40.37
2023-02-23T01:00:55.357Z,39.43
2023-02-23T01:03:23.006Z,39.43
2023-02-23T01:05:51.047Z,38.87
2023-02-23T01:08:18.951Z,41.30
2023-02-23T01:10:52.536Z,39.40
2023-02-23T01:13:21.859Z,38.73
2023-02-23T01:15:49.754Z,40.20
2023-02-23T01:18:17.691Z,39.77
2023-02-23T01:20:45.523Z,41.43
2023-02-23T01:23:13.859Z,40.13
2023-02-23T01:25:42.725Z,40.27
2023-02-23T01:28:10.461Z,40.57
2023-02-23T01:30:40.165Z,41.33
2023-02-23T01:33:07.971Z,40.63
2023-02-23T01:35:36.032Z,42.00
2023-02-23T01:38:04.053Z,41.60
2023-02-23T01:40:32.294Z,39.63
2023-02-23T01:43:00.983Z,43.27
2023-02-23T01:45:31.240Z,42.43
2023-02-23T01:48:03.426Z,39.80
2023-02-23T01:50:33.717Z,40.70
2023-02-23T01:53:01.359Z,41.77
2023-02-23T01:55:29.849Z,41.67
2023-02-23T01:58:02.111Z,43.77
2023-02-23T02:00:31.836Z,41.93
2023-02-23T02:03:01.282Z,41.57
2023-02-23T02:05:29.548Z,43.00
2023-02-23T02:07:59.007Z,41.37
2023-02-23T02:10:47.513Z,42.77
2023-02-23T02:13:19.728Z,41.47
2023-02-23T02:16:18.590Z,40.40
2023-02-23T02:18:58.355Z,42.07
2023-02-23T02:22:01.782Z,43.00
2023-02-23T02:24:49.694Z,44.17
2023-02-23T02:29:56.073Z,43.23
2023-02-23T02:32:55.282Z,43.13
2023-02-23T02:35:52.791Z,42.37
2023-02-23T02:38:38.604Z,43.40
2023-02-23T02:41:07.602Z,42.97
2023-02-23T02:43:40.693Z,43.13
2023-02-23T02:46:11.839Z,44.10
2023-02-23T02:48:43.349Z,43.23
2023-02-23T02:51:18.158Z,43.43
2023-02-23T02:53:49.659Z,42.83
2023-02-23T02:56:19.735Z,44.50
2023-02-23T02:58:50.048Z,42.57
2023-02-23T03:01:35.945Z,43.10
2023-02-23T03:04:36.243Z,43.13
2023-02-23T03:07:24.229Z,44.17
2023-02-23T03:10:13.211Z,44.83
2023-02-23T03:13:00.224Z,45.17
2023-02-23T03:15:55.376Z,43.40
2023-02-23T03:18:51.560Z,43.57
2023-02-23T03:21:46.115Z,44.03
2023-02-23T03:24:34.411Z,44.30
2023-02-23T03:27:22.748Z,42.77
2023-02-23T03:30:11.939Z,42.87
2023-02-23T03:33:01.510Z,45.47
2023-02-23T03:35:49.328Z,44.03
2023-02-23T03:38:35.748Z,44.70
2023-02-23T03:41:21.194Z,44.80
2023-02-23T03:44:11.294Z,45.57
2023-02-23T03:46:56.642Z,45.63
2023-02-23T03:49:42.762Z,45.80
2023-02-23T03:52:30.101Z,44.77
2023-02-23T03:55:17.049Z,44.03
2023-02-23T03:58:02.681Z,45.00
2023-02-23T04:00:51.106Z,44.33
2023-02-23T04:03:38.580Z,46.63
2023-02-23T04:06:26.983Z,45.90
2023-02-23T04:09:12.278Z,45.77
2023-02-23T04:12:00.112Z,45.43
2023-02-23T04:14:29.531Z,43.97
2023-02-23T04:16:57.817Z,44.07
2023-02-23T04:19:27.842Z,45.03
2023-02-23T04:21:55.633Z,44.50
2023-02-23T04:24:23.517Z,43.77
2023-02-23T04:26:51.312Z,43.60
2023-02-23T04:29:19.022Z,43.17
2023-02-23T04:31:47.321Z,42.23
2023-02-23T04:34:16.488Z,41.43
2023-02-23T04:36:44.250Z,42.97
2023-02-23T04:39:11.940Z,41.10
2023-02-23T04:41:39.672Z,39.93
2023-02-23T04:44:07.313Z,39.97
2023-02-23T04:46:35.189Z,41.87
2023-02-23T04:49:03.799Z,40.67
2023-02-23T04:51:34.202Z,40.13
2023-02-23T04:54:02.611Z,37.97
2023-02-23T04:56:30.323Z,37.27
2023-02-23T04:58:58.296Z,37.50
2023-02-23T05:01:26.881Z,38.57
2023-02-23T05:03:55.721Z,36.60
2023-02-23T05:06:23.450Z,35.73
2023-02-23T05:08:52.651Z,34.17
2023-02-23T05:11:20.589Z,32.33
2023-02-23T05:13:48.531Z,32.60
2023-02-23T05:16:16.374Z,34.10
2023-02-23T05:18:44.268Z,32.20
2023-02-23T05:21:12.180Z,30.93
2023-02-23T05:23:40.173Z,28.57
2023-02-23T05:26:10.330Z,30.97
2023-02-23T05:28:38.520Z,31.13
2023-02-23T05:31:06.594Z,31.77
2023-02-23T05:33:34.663Z,31.23
2023-02-23T05:36:05.520Z,31.73
2023-02-23T05:38:33.845Z,31.53
2023-02-23T05:41:06.291Z,32.17
2023-02-23T05:43:35.427Z,31.30
2023-02-23T05:46:07.537Z,33.10
2023-02-23T05:48:35.253Z,32.53
2023-02-23T05:51:12.344Z,32.53
2023-02-23T05:53:40.274Z,33.37
2023-02-23T05:56:09.939Z,34.07
2023-02-23T05:58:39.024Z,33.70
2023-02-23T06:01:06.932Z,36.20
2023-02-23T06:03:34.838Z,35.20
2023-02-23T06:06:02.632Z,33.90
2023-02-23T06:08:30.331Z,36.03
2023-02-23T06:10:58.144Z,34.60
2023-02-23T06:13:26.273Z,35.03
2023-02-23T06:15:55.492Z,36.17
2023-02-23T06:18:23.212Z,34.97
2023-02-23T06:20:51.198Z,35.70
2023-02-23T06:23:18.874Z,37.20
2023-02-23T06:25:47.296Z,36.73
2023-02-23T06:28:15.295Z,35.03
2023-02-23T06:30:43.075Z,36.43
2023-02-23T06:33:12.270Z,35.63
2023-02-23T06:35:39.938Z,34.63
2023-02-23T06:38:07.705Z,35.07
2023-02-23T06:40:35.385Z,34.10
2023-02-23T06:43:03.598Z,34.10
2023-02-23T06:45:31.813Z,35.57
2023-02-23T06:47:59.736Z,34.97
2023-02-23T06:50:28.941Z,34.63
2023-02-23T06:52:57.508Z,32.60
2023-02-23T06:55:25.211Z,33.20
2023-02-23T06:57:54.242Z,32.10
2023-02-23T07:00:22.965Z,31.00
2023-02-23T07:02:50.665Z,31.63
2023-02-23T07:05:18.552Z,30.07
2023-02-23T07:07:48.020Z,29.37
2023-02-23T07:10:15.844Z,28.73
2023-02-23T07:12:44.553Z,27.97
2023-02-23T07:15:12.750Z,28.40
2023-02-23T07:17:40.554Z,28.33
2023-02-23T07:20:09.031Z,28.27
2023-02-23T07:22:39.078Z,28.13
2023-02-23T07:25:09.825Z,28.97
2023-02-23T07:27:37.506Z,27.80
2023-02-23T07:30:05.876Z,26.13
2023-02-23T07:32:34.037Z,26.20
2023-02-23T07:35:01.994Z,24.40
2023-02-23T07:37:29.909Z,24.77
2023-02-23T07:39:59.470Z,24.53
2023-02-23T07:42:31.244Z,23.73
2023-02-23T07:44:58.942Z,25.10
2023-02-23T07:47:31.043Z,25.03
2023-02-23T07:50:00.566Z,27.10
2023-02-23T07:52:28.779Z,25.50
2023-02-23T07:54:56.539Z,25.63
2023-02-23T07:57:25.073Z,25.53
2023-02-23T07:59:54.267Z,25.17
2023-02-23T08:02:21.994Z,26.23
2023-02-23T08:04:50.638Z,29.17
2023-02-23T08:07:24.653Z,28.70
2023-02-23T08:09:55.399Z,26.47
2023-02-23T08:12:29.692Z,25.03
2023-02-23T08:14:58.778Z,25.70
2023-02-23T08:17:27.527Z,26.40
2023-02-23T08:19:55.246Z,26.30
2023-02-23T08:22:23.105Z,24.83
2023-02-23T08:24:50.871Z,24.80
2023-02-23T08:29:46.385Z,25.77
2023-02-23T08:32:20.383Z,26.17
2023-02-23T08:34:48.059Z,26.13
2023-02-23T08:37:15.699Z,28.53
2023-02-23T08:39:44.066Z,29.57
2023-02-23T08:42:11.848Z,31.47
2023-02-23T08:44:39.759Z,32.40
2023-02-23T08:47:07.499Z,33.30
2023-02-23T08:49:36.554Z,33.03
2023-02-23T08:52:04.407Z,32.57
2023-02-23T08:54:32.209Z,34.27
2023-02-23T08:57:00.023Z,34.73
2023-02-23T08:59:27.948Z,33.73
2023-02-23T09:01:55.714Z,34.87
2023-02-23T09:04:23.493Z,34.70
2023-02-23T09:06:54.366Z,35.07
2023-02-23T09:09:22.102Z,35.47
2023-02-23T09:11:51.137Z,33.87
2023-02-23T09:14:19.287Z,33.90
2023-02-23T09:16:47.152Z,33.57
2023-02-23T09:19:15.125Z,32.67
2023-02-23T09:21:43.117Z,33.43
2023-02-23T09:24:12.256Z,33.20
2023-02-23T09:26:45.785Z,33.10
2023-02-23T09:29:13.737Z,33.67
2023-02-23T09:31:43.591Z,35.60
2023-02-23T09:34:12.689Z,33.97
2023-02-23T09:36:40.389Z,34.63
2023-02-23T09:39:08.192Z,32.57
2023-02-23T09:41:52.619Z,34.03
2023-02-23T09:44:26.271Z,32.67
2023-02-23T09:46:59.408Z,34.00
2023-02-23T09:49:29.332Z,33.47
2023-02-23T09:51:58.907Z,33.20
2023-02-23T09:54:28.025Z,31.20
2023-02-23T09:56:58.341Z,31.20
2023-02-23T09:59:26.140Z,31.73
2023-02-23T10:02:00.278Z,30.40
2023-02-23T10:04:28.850Z,30.97
2023-02-23T10:07:00.594Z,29.77
2023-02-23T10:09:34.415Z,29.87
2023-02-23T10:12:06.061Z,28.50
2023-02-23T10:14:48.852Z,26.73
2023-02-23T10:17:21.174Z,24.90
2023-02-23T10:19:51.983Z,24.60
2023-02-23T10:22:19.659Z,26.10
2023-02-23T10:24:51.064Z,23.87
2023-02-23T10:27:20.970Z,24.10
2023-02-23T10:29:50.146Z,23.10
2023-02-23T10:32:22.505Z,22.60
2023-02-23T10:34:51.133Z,21.63
2023-02-23T10:37:18.929Z,22.33
2023-02-23T10:39:49.968Z,23.17
2023-02-23T10:42:21.411Z,23.27
2023-02-23T10:44:50.008Z,26.13
2023-02-23T10:47:19.066Z,25.73
2023-02-23T10:49:47.932Z,29.37
2023-02-23T10:52:17.044Z,29.63
2023-02-23T10:54:47.575Z,31.00
2023-02-23T10:57:27.874Z,31.70
2023-02-23T11:00:18.216Z,32.00
2023-02-23T11:02:46.013Z,30.33
2023-02-23T11:05:35.614Z,32.30
2023-02-23T11:08:31.504Z,33.37
2023-02-23T11:11:21.728Z,34.07
2023-02-23T11:13:51.504Z,34.73
2023-02-23T11:16:21.038Z,35.40
2023-02-23T11:18:54.625Z,35.90
2023-02-23T11:21:24.601Z,34.10
2023-02-23T11:23:53.411Z,36.43
2023-02-23T11:26:30.008Z,36.73
2023-02-23T11:29:00.383Z,35.87
2023-02-23T11:31:32.072Z,34.97
2023-02-23T11:33:59.871Z,35.87
2023-02-23T11:36:28.914Z,33.63
2023-02-23T11:39:17.189Z,32.60
2023-02-23T11:41:44.892Z,31.73
2023-02-23T11:44:25.393Z,30.90
2023-02-23T11:46:53.182Z,30.90
2023-02-23T11:49:22.867Z,31.40
2023-02-23T11:51:51.778Z,32.20
2023-02-23T11:54:22.710Z,34.23
2023-02-23T11:56:54.035Z,34.17
2023-02-23T11:59:27.196Z,36.03
2023-02-23T12:01:55.513Z,35.93
2023-02-23T12:04:29.536Z,38.17
2023-02-23T12:07:17.999Z,37.90
2023-02-23T12:09:46.030Z,36.40
2023-02-23T12:12:15.219Z,35.23
2023-02-23T12:14:49.617Z,34.97
2023-02-23T12:17:18.915Z,36.03
2023-02-23T12:19:48.624Z,36.70
2023-02-23T12:22:17.369Z,39.63
2023-02-23T12:24:48.661Z,41.07
2023-02-23T12:27:17.190Z,42.37
2023-02-23T12:29:59.989Z,39.67
2023-02-23T12:32:29.269Z,41.60
2023-02-23T12:34:59.244Z,38.07
2023-02-23T12:37:36.949Z,37.00
2023-02-23T12:40:11.483Z,35.63
2023-02-23T12:42:41.228Z,33.27
2023-02-23T12:45:14.835Z,32.03
2023-02-23T12:47:45.203Z,32.93
2023-02-23T12:50:15.231Z,32.87
2023-02-23T12:52:45.184Z,31.87
2023-02-23T12:55:13.274Z,31.37
2023-02-23T12:57:44.904Z,32.93
2023-02-23T13:00:31.028Z,31.50
2023-02-23T13:03:14.339Z,29.63
2023-02-23T13:05:42.477Z,31.23
2023-02-23T13:08:15.445Z,29.10
2023-02-23T13:10:47.228Z,27.77
2023-02-23T13:13:21.697Z,26.33
2023-02-23T13:16:02.145Z,26.20
2023-02-23T13:18:33.716Z,26.20
2023-02-23T13:21:05.341Z,25.67
2023-02-23T13:23:35.977Z,26.43
2023-02-23T13:26:10.718Z,26.23
2023-02-23T13:28:43.472Z,27.03
2023-02-23T13:31:23.407Z,27.53
2023-02-23T13:33:51.385Z,27.27
2023-02-23T13:36:19.196Z,28.00
2023-02-23T13:38:54.985Z,28.77
2023-02-23T13:41:29.109Z,28.90
2023-02-23T13:43:58.508Z,30.23
2023-02-23T13:46:31.276Z,32.97
2023-02-23T13:49:02.384Z,32.13
2023-02-23T13:51:34.460Z,32.03
2023-02-23T13:54:06.424Z,32.83
2023-02-23T13:56:38.187Z,31.10
2023-02-23T13:59:08.356Z,31.37
2023-02-23T14:01:39.594Z,29.20
2023-02-23T14:04:12.509Z,30.77
2023-02-23T14:06:41.744Z,28.33
2023-02-23T14:09:10.419Z,26.03
2023-02-23T14:11:48.625Z,27.00
2023-02-23T14:14:33.338Z,25.63
2023-02-23T14:17:30.079Z,23.43
2023-02-23T14:20:07.216Z,21.33
2023-02-23T14:22:35.884Z,21.90
2023-02-23T14:25:45.464Z,20.50
2023-02-23T14:28:24.318Z,21.60
2023-02-23T14:31:01.308Z,20.80
2023-02-23T14:33:37.643Z,19.43
2023-02-23T14:36:29.651Z,20.23
2023-02-23T14:39:00.570Z,17.23
2023-02-23T14:41:30.305Z,16.60
2023-02-23T14:44:00.761Z,16.47
2023-02-23T14:46:28.523Z,16.60
2023-02-23T14:49:01.767Z,15.77
2023-02-23T14:51:35.417Z,14.83
2023-02-23T14:54:04.888Z,15.20
2023-02-23T14:56:43.805Z,14.73
2023-02-23T14:59:18.320Z,14.37
2023-02-23T15:01:46.091Z,14.30
2023-02-23T15:04:17.275Z,12.97
2023-02-23T15:06:46.936Z,14.20
2023-02-23T15:09:18.355Z,13.43
2023-02-23T15:11:48.568Z,13.57
2023-02-23T15:14:26.929Z,13.57
2023-02-23T15:16:56.092Z,14.37
2023-02-23T15:19:35.936Z,14.83
2023-02-23T15:22:04.834Z,15.30
2023-02-23T15:24:34.104Z,14.73
2023-02-23T15:27:01.869Z,13.87
2023-02-23T15:29:32.575Z,14.57
2023-02-23T15:32:14.874Z,15.53
2023-02-23T15:34:44.171Z,15.20
2023-02-23T15:37:14.292Z,16.13
2023-02-23T15:39:44.930Z,14.87
2023-02-23T15:42:15.079Z,15.90
2023-02-23T15:44:45.081Z,14.70
2023-02-23T15:47:18.344Z,15.00
2023-02-23T15:49:47.483Z,15.33
2023-02-23T15:52:16.832Z,14.50
2023-02-23T15:54:48.247Z,14.50
2023-02-23T15:57:19.956Z,15.13
2023-02-23T15:59:48.628Z,14.27
2023-02-23T16:02:19.388Z,14.87
2023-02-23T16:04:49.878Z,14.10
2023-02-23T16:12:37.220Z,16.70
2023-02-23T16:15:06.113Z,16.10
2023-02-23T16:17:36.344Z,16.10
2023-02-23T16:20:11.916Z,16.87
2023-02-23T16:22:40.102Z,16.37
2023-02-23T16:25:09.691Z,16.13
2023-02-23T16:27:37.559Z,16.40
2023-02-23T16:30:18.552Z,16.60
2023-02-23T16:32:46.421Z,16.10
2023-02-23T16:35:20.364Z,15.80
2023-02-23T16:37:56.234Z,16.37
2023-02-23T16:40:32.633Z,16.40
2023-02-23T16:43:00.487Z,15.87
2023-02-23T16:45:29.688Z,18.17
2023-02-23T16:48:02.123Z,15.97
2023-02-23T16:50:33.463Z,16.87
2023-02-23T16:53:02.116Z,15.53
2023-02-23T16:55:33.753Z,16.67
2023-02-23T16:58:02.917Z,17.13
2023-02-23T17:00:31.468Z,16.83
2023-02-23T17:03:00.492Z,19.77
2023-02-23T17:05:28.816Z,18.20
2023-02-23T17:07:58.945Z,19.70
2023-02-23T17:10:27.857Z,18.83
2023-02-23T17:12:56.484Z,19.60
2023-02-23T17:15:27.385Z,18.87
2023-02-23T17:17:56.049Z,20.10
2023-02-23T17:20:25.763Z,19.27
2023-02-23T17:22:54.444Z,21.97
2023-02-23T17:25:24.261Z,22.00
2023-02-23T17:27:52.270Z,21.87
2023-02-23T17:30:20.092Z,23.57
2023-02-23T17:32:47.890Z,21.67
2023-02-23T17:35:15.810Z,23.23
2023-02-23T17:37:44.612Z,22.07
2023-02-23T17:40:14.423Z,22.60
2023-02-23T17:42:43.619Z,21.77
2023-02-23T17:45:11.413Z,22.63
2023-02-23T17:47:39.829Z,24.33
2023-02-23T17:50:08.406Z,23.03
2023-02-23T17:52:36.142Z,23.03
2023-02-23T17:57:37.670Z,23.60
2023-02-23T18:00:13.073Z,22.47
2023-02-23T18:02:41.056Z,23.23
2023-02-23T18:05:09.409Z,22.00
2023-02-23T18:07:37.268Z,20.57
2023-02-23T18:10:05.793Z,19.47
2023-02-23T18:12:34.035Z,18.43
2023-02-23T18:15:01.825Z,16.40
2023-02-23T18:17:32.448Z,17.93
2023-02-23T18:20:01.355Z,16.40
2023-02-23T18:22:29.011Z,18.13
2023-02-23T18:24:57.367Z,16.00
2023-02-23T18:27:26.209Z,14.07
2023-02-23T18:29:54.221Z,13.57
2023-02-23T18:32:21.998Z,12.87
2023-02-23T18:34:52.284Z,13.27
2023-02-23T18:37:25.249Z,12.33
2023-02-23T18:39:54.326Z,11.13
2023-02-23T18:42:40.187Z,13.33
2023-02-23T18:45:09.119Z,14.97
2023-02-23T18:47:36.948Z,17.40
2023-02-23T18:50:06.756Z,16.30
2023-02-23T18:52:36.615Z,15.77
2023-02-23T18:55:05.592Z,14.33
2023-02-23T18:57:33.512Z,13.67
2023-02-23T19:00:01.289Z,13.53
2023-02-23T19:02:29.450Z,13.97
2023-02-23T19:05:02.740Z,13.50
2023-02-23T19:07:32.468Z,13.27
2023-02-23T19:10:05.542Z,12.43
2023-02-23T19:12:33.537Z,13.47
2023-02-23T19:15:01.301Z,13.90
2023-02-23T19:17:30.112Z,14.17
2023-02-23T19:19:58.164Z,12.77
2023-02-23T19:22:26.002Z,13.33
2023-02-23T19:24:56.270Z,14.20
2023-02-23T19:27:24.003Z,14.57
2023-02-23T19:29:51.811Z,15.40
2023-02-23T19:32:19.716Z,13.53
2023-02-23T19:34:47.882Z,14.57
2023-02-23T19:37:15.679Z,13.30
2023-02-23T19:39:45.067Z,13.80
2023-02-23T19:42:18.245Z,13.03
2023-02-23T19:44:45.956Z,14.10
2023-02-23T19:47:14.146Z,15.97
2023-02-23T19:49:41.899Z,15.03
2023-02-23T19:52:09.837Z,14.80
2023-02-23T19:54:38.657Z,13.17
2023-02-23T19:57:06.378Z,12.93
2023-02-23T19:59:38.115Z,13.00
2023-02-23T20:02:05.831Z,13.73
2023-02-23T20:04:33.893Z,13.83
2023-02-23T20:07:01.561Z,14.07
2023-02-23T20:09:29.516Z,14.93
2023-02-23T20:11:57.324Z,14.00
2023-02-23T20:14:25.208Z,13.50
2023-02-23T20:16:54.493Z,13.27
2023-02-23T20:19:23.375Z,13.90
2023-02-23T20:21:51.175Z,13.97
2023-02-23T20:24:19.129Z,14.40
2023-02-23T20:26:46.843Z,13.07
2023-02-23T20:29:17.940Z,13.40
2023-02-23T20:31:50.602Z,14.73
2023-02-23T20:34:23.699Z,13.87
2023-02-23T20:36:52.021Z,13.83
2023-02-23T20:39:19.927Z,14.03
2023-02-23T20:41:47.891Z,14.43
2023-02-23T20:44:16.520Z,14.97
2023-02-23T20:46:46.210Z,15.53
2023-02-23T20:49:14.293Z,15.20
2023-02-23T20:51:44.631Z,14.90
2023-02-23T20:54:12.806Z,14.30
2023-02-23T20:56:40.712Z,14.30
2023-02-23T20:59:10.998Z,14.60
2023-02-23T21:01:57.493Z,14.70
2023-02-23T21:04:25.301Z,14.17
2023-02-23T21:06:56.034Z,15.73
2023-02-23T21:10:08.409Z,14.90
2023-02-23T21:12:38.589Z,16.10
2023-02-23T21:15:09.160Z,15.57
2023-02-23T21:17:38.471Z,16.60
2023-02-23T21:20:13.291Z,17.37
2023-02-23T21:22:42.728Z,15.77
2023-02-23T21:25:15.218Z,17.30
2023-02-23T21:27:44.925Z,17.20
2023-02-23T21:30:32.992Z,17.23
2023-02-23T21:33:00.794Z,17.70
2023-02-23T21:35:28.675Z,18.53
2023-02-23T21:37:57.904Z,19.53
2023-02-23T21:40:25.830Z,18.87
2023-02-23T21:42:53.615Z,20.93
2023-02-23T21:45:21.493Z,20.83
2023-02-23T21:47:49.581Z,19.97
2023-02-23T21:50:18.949Z,20.07
2023-02-23T21:52:48.519Z,22.20
2023-02-23T21:55:21.950Z,21.60
2023-02-23T21:57:50.415Z,22.83
2023-02-23T22:00:18.869Z,21.53
2023-02-23T22:02:47.458Z,23.17
2023-02-23T22:05:15.924Z,22.67
2023-02-23T22:07:48.478Z,21.87
2023-02-23T22:10:18.532Z,23.23
2023-02-23T22:12:46.363Z,21.73
2023-02-23T22:15:15.671Z,22.67
2023-02-23T22:17:43.458Z,22.57
2023-02-23T22:20:13.019Z,21.97
2023-02-23T22:22:41.244Z,20.37
2023-02-23T22:25:09.515Z,21.93
2023-02-23T22:27:41.501Z,19.87
2023-02-23T22:30:12.048Z,19.37
2023-02-23T22:32:42.788Z,19.17
2023-02-23T22:35:11.341Z,20.20
2023-02-23T22:38:05.659Z,18.53
2023-02-23T22:40:33.406Z,19.67
2023-02-23T22:43:02.582Z,18.70
2023-02-23T22:45:30.299Z,18.50
2023-02-23T22:48:01.499Z,17.57
2023-02-23T22:50:29.653Z,18.70
2023-02-23T22:52:57.574Z,18.47
2023-02-23T22:55:29.281Z,17.40
2023-02-23T22:57:57.055Z,16.73
2023-02-23T23:00:27.181Z,16.57
2023-02-23T23:02:55.378Z,15.00
2023-02-23T23:05:24.297Z,12.97
2023-02-23T23:07:52.139Z,12.50
2023-02-23T23:10:20.302Z,10.70
2023-02-23T23:12:48.798Z,10.50
2023-02-23T23:15:18.930Z,8.67
2023-02-23T23:17:49.402Z,9.53
2023-02-23T23:20:18.772Z,7.80
2023-02-23T23:22:46.590Z,7.97
2023-02-23T23:25:15.725Z,7.00
2023-02-23T23:27:44.542Z,6.83
2023-02-23T23:30:13.422Z,6.83
2023-02-23T23:32:41.438Z,7.30
2023-02-23T23:35:15.326Z,7.77
2023-02-23T23:37:43.254Z,7.47
2023-02-23T23:40:14.784Z,7.67
2023-02-23T23:42:45.888Z,7.53
2023-02-23T23:45:16.195Z,8.13
2023-02-23T23:47:44.846Z,8.10
2023-02-23T23:50:15.499Z,8.20
2023-02-23T23:52:44.413Z,8.87
2023-02-23T23:57:46.154Z,9.63
